createdAt,value
2018-09-12T00:00:08.049Z,70.18
2018-09-12T00:02:37.022Z,70.40
2018-09-12T00:05:06.271Z,70.23
2018-09-12T00:07:35.245Z,70.09
2018-09-12T00:10:04.589Z,70.43
2018-09-12T00:12:33.598Z,70.45
2018-09-12T00:15:02.583Z,70.90
2018-09-12T00:17:31.610Z,70.22
2018-09-12T00:20:00.733Z,70.63
2018-09-12T00:22:29.755Z,70.43
2018-09-12T00:24:58.796Z,71.17
2018-09-12T00:27:27.813Z,71.29
2018-09-12T00:29:56.885Z,71.87
2018-09-12T00:32:25.855Z,71.84
2018-09-12T00:34:54.898Z,71.89
2018-09-12T00:37:24.019Z,72.52
2018-09-12T00:39:53.031Z,72.37
2018-09-12T00:42:22.114Z,72.86
2018-09-12T00:44:51.120Z,73.13
2018-09-12T00:47:20.504Z,73.42
2018-09-12T00:49:49.537Z,74.25
2018-09-12T00:52:18.551Z,73.93
2018-09-12T00:54:47.597Z,73.52
2018-09-12T00:57:16.637Z,72.44
2018-09-12T00:59:45.691Z,72.12
2018-09-12T01:02:14.725Z,71.35
2018-09-12T01:04:43.922Z,71.06
2018-09-12T01:07:12.898Z,70.79
2018-09-12T01:09:41.923Z,70.58
2018-09-12T01:12:11.383Z,70.82
2018-09-12T01:14:40.549Z,70.77
2018-09-12T01:17:09.564Z,71.36
2018-09-12T01:19:38.615Z,71.52
2018-09-12T01:22:07.681Z,71.69
2018-09-12T01:24:37.319Z,72.27
2018-09-12T01:27:06.164Z,72.94
2018-09-12T01:29:35.171Z,72.91
2018-09-12T01:32:04.212Z,72.99
2018-09-12T01:34:33.242Z,73.22
2018-09-12T01:37:02.275Z,73.85
2018-09-12T01:39:31.328Z,73.85
2018-09-12T01:42:01.107Z,73.38
2018-09-12T01:44:30.128Z,73.75
2018-09-12T01:46:59.151Z,74.00
2018-09-12T01:49:28.175Z,74.34
2018-09-12T01:51:57.235Z,74.63
2018-09-12T01:54:26.615Z,75.01
2018-09-12T01:56:55.639Z,75.40
2018-09-12T01:59:24.645Z,75.13
2018-09-12T02:01:54.115Z,75.25
2018-09-12T02:04:23.198Z,75.87
2018-09-12T02:06:52.522Z,75.70
2018-09-12T02:09:21.569Z,76.03
2018-09-12T02:11:50.579Z,76.47
2018-09-12T02:14:19.892Z,76.59
2018-09-12T02:16:48.915Z,76.57
2018-09-12T02:19:17.931Z,76.26
2018-09-12T02:21:46.971Z,76.83
2018-09-12T02:24:15.987Z,76.50
2018-09-12T02:26:45.299Z,76.72
2018-09-12T02:29:14.307Z,76.75
2018-09-12T02:31:43.306Z,76.52
2018-09-12T02:34:12.434Z,76.90
2018-09-12T02:36:41.593Z,76.94
2018-09-12T02:39:10.891Z,77.32
2018-09-12T02:41:39.943Z,76.93
2018-09-12T02:44:08.976Z,77.37
2018-09-12T02:46:38.028Z,77.28
2018-09-12T02:49:07.049Z,77.23
2018-09-12T02:51:36.089Z,77.12
2018-09-12T02:54:05.115Z,77.41
2018-09-12T02:56:34.593Z,77.55
2018-09-12T02:59:03.614Z,77.39
2018-09-12T03:01:32.618Z,77.15
2018-09-12T03:04:02.119Z,76.97
2018-09-12T03:06:31.119Z,76.97
2018-09-12T03:09:00.317Z,77.02
2018-09-12T03:11:29.359Z,76.77
2018-09-12T03:13:58.386Z,76.01
2018-09-12T03:16:27.420Z,76.58
2018-09-12T03:18:57.346Z,76.17
2018-09-12T03:21:26.804Z,75.97
2018-09-12T03:23:55.820Z,75.40
2018-09-12T03:26:24.869Z,75.07
2018-09-12T03:28:53.927Z,75.87
2018-09-12T03:31:22.944Z,75.54
2018-09-12T03:33:51.998Z,74.72
2018-09-12T03:36:21.103Z,74.60
2018-09-12T03:38:50.137Z,74.22
2018-09-12T03:41:19.185Z,74.42
2018-09-12T03:43:48.475Z,74.86
2018-09-12T03:46:17.511Z,75.25
2018-09-12T03:48:46.724Z,75.68
2018-09-12T03:51:15.773Z,76.04
2018-09-12T03:53:44.805Z,75.97
2018-09-12T03:56:13.837Z,76.31
2018-09-12T03:58:42.903Z,76.10
2018-09-12T04:01:12.251Z,75.92
2018-09-12T04:03:41.288Z,76.60
2018-09-12T04:06:10.288Z,75.98
2018-09-12T04:08:39.331Z,76.21
2018-09-12T04:11:08.354Z,76.36
2018-09-12T04:13:37.399Z,75.85
2018-09-12T04:16:06.484Z,76.26
2018-09-12T04:18:35.503Z,76.17
2018-09-12T04:21:04.543Z,76.54
2018-09-12T04:23:33.608Z,76.92
2018-09-12T04:26:02.807Z,76.41
2018-09-12T04:28:31.820Z,76.55
2018-09-12T04:31:01.150Z,77.04
2018-09-12T04:33:30.159Z,76.89
2018-09-12T04:35:59.166Z,77.05
2018-09-12T04:38:28.318Z,77.12
2018-09-12T04:40:57.360Z,77.87
2018-09-12T04:43:26.693Z,77.30
2018-09-12T04:45:55.720Z,79.49
2018-09-12T04:48:24.835Z,77.67
2018-09-12T04:50:53.808Z,77.32
2018-09-12T04:53:22.841Z,77.16
2018-09-12T04:55:52.139Z,77.93
2018-09-12T04:58:21.239Z,77.89
2018-09-12T05:00:50.291Z,77.62
2018-09-12T05:03:19.333Z,77.97
2018-09-12T05:05:48.328Z,77.96
2018-09-12T05:08:17.360Z,77.83
2018-09-12T05:10:46.405Z,77.25
2018-09-12T05:13:15.670Z,77.45
2018-09-12T05:15:44.925Z,77.67
2018-09-12T05:18:13.943Z,77.52
2018-09-12T05:20:42.982Z,77.25
2018-09-12T05:23:12.008Z,77.38
2018-09-12T05:25:41.135Z,77.04
2018-09-12T05:28:10.160Z,76.19
2018-09-12T05:30:39.204Z,76.39
2018-09-12T05:33:08.355Z,76.01
2018-09-12T05:35:37.383Z,75.37
2018-09-12T05:38:06.434Z,75.03
2018-09-12T05:40:35.467Z,75.70
2018-09-12T05:43:04.799Z,75.07
2018-09-12T05:45:33.828Z,75.70
2018-09-12T05:48:02.944Z,75.51
2018-09-12T05:50:31.939Z,74.64
2018-09-12T05:53:00.961Z,75.06
2018-09-12T05:55:30.031Z,74.39
2018-09-12T05:57:59.078Z,74.23
2018-09-12T06:00:28.194Z,74.80
2018-09-12T06:02:57.204Z,74.58
2018-09-12T06:05:26.232Z,74.11
2018-09-12T06:07:55.503Z,74.28
2018-09-12T06:10:24.523Z,74.48
2018-09-12T06:12:53.585Z,74.15
2018-09-12T06:15:22.680Z,73.48
2018-09-12T06:17:51.774Z,73.15
2018-09-12T06:20:20.831Z,72.71
2018-09-12T06:22:49.883Z,71.74
2018-09-12T06:25:18.915Z,70.48
2018-09-12T06:27:47.988Z,71.54
2018-09-12T06:30:17.032Z,71.03
2018-09-12T06:32:46.057Z,71.51
2018-09-12T06:35:15.087Z,71.03
2018-09-12T06:37:44.216Z,70.73
2018-09-12T06:40:13.271Z,70.46
2018-09-12T06:42:42.291Z,70.37
2018-09-12T06:45:11.318Z,70.10
2018-09-12T06:47:40.719Z,68.53
2018-09-12T06:50:09.799Z,68.20
2018-09-12T06:52:38.811Z,67.91
2018-09-12T06:55:07.843Z,66.84
2018-09-12T06:57:36.909Z,67.56
2018-09-12T07:00:06.655Z,67.40
2018-09-12T07:02:35.680Z,63.50
2018-09-12T07:05:04.843Z,63.79
2018-09-12T07:07:33.950Z,62.21
2018-09-12T07:10:02.895Z,61.98
2018-09-12T07:12:31.940Z,58.20
2018-09-12T07:15:01.979Z,57.71
2018-09-12T07:17:31.256Z,56.86
2018-09-12T07:20:00.278Z,56.33
2018-09-12T07:22:29.368Z,56.72
2018-09-12T07:24:58.436Z,56.17
2018-09-12T07:27:27.489Z,55.17
2018-09-12T07:29:56.483Z,53.94
2018-09-12T07:32:25.499Z,54.18
2018-09-12T07:34:54.568Z,54.93
2018-09-12T07:37:23.603Z,53.84
2018-09-12T07:39:52.631Z,53.17
2018-09-12T07:42:21.872Z,52.90
2018-09-12T07:44:50.892Z,52.36
2018-09-12T07:47:19.922Z,52.25
2018-09-12T07:49:48.951Z,51.72
2018-09-12T07:52:18.191Z,52.08
2018-09-12T07:54:47.274Z,50.53
2018-09-12T07:57:16.320Z,50.77
2018-09-12T07:59:45.480Z,50.89
2018-09-12T08:02:14.542Z,50.39
2018-09-12T08:04:49.919Z,50.43
2018-09-12T08:07:18.978Z,49.65
2018-09-12T08:09:47.987Z,48.94
2018-09-12T08:12:17.103Z,49.01
2018-09-12T08:14:46.083Z,48.77
2018-09-12T08:17:18.063Z,48.40
2018-09-12T08:19:47.143Z,48.95
2018-09-12T08:22:16.194Z,48.83
2018-09-12T08:24:45.705Z,48.72
2018-09-12T08:27:14.712Z,48.38
2018-09-12T08:29:43.728Z,48.88
2018-09-12T08:32:12.804Z,47.53
2018-09-12T08:34:41.785Z,47.82
2018-09-12T08:37:10.832Z,48.64
2018-09-12T08:39:39.887Z,47.99
2018-09-12T08:42:09.335Z,47.42
2018-09-12T08:44:38.340Z,46.61
2018-09-12T08:47:07.355Z,46.76
2018-09-12T08:49:36.385Z,46.06
2018-09-12T08:52:05.490Z,46.47
2018-09-12T08:54:34.536Z,46.63
2018-09-12T08:57:03.556Z,46.18
2018-09-12T08:59:32.923Z,44.84
2018-09-12T09:02:02.023Z,45.54
2018-09-12T09:04:31.112Z,44.24
2018-09-12T09:07:00.201Z,45.25
2018-09-12T09:09:29.203Z,43.97
2018-09-12T09:11:58.293Z,44.94
2018-09-12T09:14:27.316Z,43.59
2018-09-12T09:17:03.107Z,44.16
2018-09-12T09:19:32.116Z,44.35
2018-09-12T09:22:01.135Z,43.79
2018-09-12T09:24:30.175Z,44.45
2018-09-12T09:26:59.179Z,43.82
2018-09-12T09:29:28.317Z,43.42
2018-09-12T09:31:57.231Z,43.05
2018-09-12T09:34:26.319Z,43.26
2018-09-12T09:36:55.329Z,42.96
2018-09-12T09:39:24.376Z,42.17
2018-09-12T09:41:53.431Z,42.93
2018-09-12T09:44:22.445Z,42.69
2018-09-12T09:46:51.519Z,42.27
2018-09-12T09:49:20.500Z,41.66
2018-09-12T09:51:49.510Z,41.38
2018-09-12T09:54:24.860Z,41.25
2018-09-12T09:56:53.880Z,41.35
2018-09-12T09:59:22.923Z,41.06
2018-09-12T10:01:57.283Z,40.14
2018-09-12T10:04:31.724Z,41.04
2018-09-12T10:07:04.904Z,40.89
2018-09-12T10:09:34.125Z,41.15
2018-09-12T10:12:03.931Z,40.38
2018-09-12T10:14:33.331Z,41.04
2018-09-12T10:17:02.347Z,40.63
2018-09-12T10:19:31.352Z,40.40
2018-09-12T10:22:00.391Z,39.77
2018-09-12T10:24:29.411Z,40.31
2018-09-12T10:26:58.451Z,39.67
2018-09-12T10:29:27.451Z,39.50
2018-09-12T10:31:56.799Z,39.11
2018-09-12T10:34:25.816Z,38.89
2018-09-12T10:36:54.831Z,38.42
2018-09-12T10:39:23.864Z,39.25
2018-09-12T10:41:52.905Z,38.67
2018-09-12T10:44:21.943Z,38.21
2018-09-12T10:46:50.990Z,37.39
2018-09-12T10:49:20.024Z,38.30
2018-09-12T10:51:49.038Z,37.96
2018-09-12T10:54:18.047Z,36.54
2018-09-12T10:56:47.115Z,36.03
2018-09-12T10:59:22.788Z,36.20
2018-09-12T11:01:51.828Z,37.20
2018-09-12T11:04:20.873Z,36.91
2018-09-12T11:06:49.876Z,37.32
2018-09-12T11:09:18.927Z,36.91
2018-09-12T11:11:47.936Z,36.46
2018-09-12T11:14:16.980Z,36.59
2018-09-12T11:16:45.991Z,36.55
2018-09-12T11:19:15.303Z,35.07
2018-09-12T11:21:44.311Z,36.28
2018-09-12T11:24:13.336Z,35.93
2018-09-12T11:26:42.381Z,36.67
2018-09-12T11:29:11.400Z,34.91
2018-09-12T11:31:40.750Z,34.90
2018-09-12T11:34:10.556Z,34.27
2018-09-12T11:36:39.524Z,33.92
2018-09-12T11:39:09.732Z,34.71
2018-09-12T11:41:38.768Z,33.96
2018-09-12T11:44:07.835Z,34.72
2018-09-12T11:46:37.035Z,33.94
2018-09-12T11:49:06.486Z,34.08
2018-09-12T11:51:35.476Z,33.16
2018-09-12T11:54:04.499Z,33.47
2018-09-12T11:56:33.540Z,33.28
2018-09-12T11:59:02.711Z,33.60
2018-09-12T12:01:31.740Z,32.51
2018-09-12T12:04:00.808Z,32.97
2018-09-12T12:06:29.819Z,33.35
2018-09-12T12:08:58.933Z,33.53
2018-09-12T12:11:27.935Z,33.66
2018-09-12T12:13:56.999Z,32.33
2018-09-12T12:16:26.014Z,33.29
2018-09-12T12:18:55.007Z,32.56
2018-09-12T12:21:24.042Z,32.45
2018-09-12T12:23:53.050Z,32.32
2018-09-12T12:26:22.083Z,32.23
2018-09-12T12:28:51.088Z,32.35
2018-09-12T12:31:20.127Z,31.85
2018-09-12T12:33:49.136Z,32.06
2018-09-12T12:36:18.419Z,31.54
2018-09-12T12:38:47.703Z,31.68
2018-09-12T12:41:16.752Z,30.78
2018-09-12T12:43:45.784Z,31.70
2018-09-12T12:46:14.802Z,32.04
2018-09-12T12:48:43.971Z,31.38
2018-09-12T12:51:13.004Z,31.39
2018-09-12T12:53:42.011Z,32.15
2018-09-12T12:56:11.091Z,32.36
2018-09-12T12:58:40.151Z,32.41
2018-09-12T13:01:09.216Z,31.59
2018-09-12T13:03:38.229Z,31.85
2018-09-12T13:06:07.683Z,31.12
2018-09-12T13:08:36.752Z,31.87
2018-09-12T13:11:06.092Z,31.49
2018-09-12T13:13:35.135Z,30.95
2018-09-12T13:16:04.160Z,31.57
2018-09-12T13:20:54.855Z,28.46
2018-09-12T13:23:24.159Z,28.43
2018-09-12T13:25:53.166Z,27.43
2018-09-12T13:28:22.175Z,26.94
2018-09-12T13:30:51.228Z,26.82
2018-09-12T13:33:20.351Z,26.91
2018-09-12T13:35:49.435Z,27.04
2018-09-12T13:38:18.491Z,27.98
2018-09-12T13:40:48.527Z,28.83
2018-09-12T13:43:18.247Z,28.77
2018-09-12T13:45:47.309Z,28.01
2018-09-12T13:48:16.412Z,27.93
2018-09-12T13:50:45.435Z,28.47
2018-09-12T13:53:14.480Z,27.96
2018-09-12T13:55:43.500Z,28.22
2018-09-12T13:58:12.771Z,26.96
2018-09-12T14:00:41.844Z,28.37
2018-09-12T14:03:10.949Z,27.68
2018-09-12T14:05:39.979Z,28.09
2018-09-12T14:08:08.994Z,27.13
2018-09-12T14:10:38.110Z,28.06
2018-09-12T14:13:07.242Z,27.71
2018-09-12T14:15:36.239Z,27.03
2018-09-12T14:18:05.374Z,26.40
2018-09-12T14:20:34.379Z,27.58
2018-09-12T14:23:03.473Z,27.31
2018-09-12T14:25:32.483Z,27.53
2018-09-12T14:28:01.487Z,26.60
2018-09-12T14:30:30.523Z,27.67
2018-09-12T14:32:59.536Z,26.89
2018-09-12T14:35:28.607Z,26.83
2018-09-12T14:37:57.658Z,27.50
2018-09-12T14:40:26.727Z,27.59
2018-09-12T14:42:55.764Z,27.96
2018-09-12T14:45:24.767Z,27.51
2018-09-12T14:47:53.812Z,27.48
2018-09-12T14:50:22.820Z,29.01
2018-09-12T14:52:51.852Z,28.40
2018-09-12T14:55:20.908Z,29.18
2018-09-12T14:57:49.948Z,27.52
2018-09-12T15:00:24.173Z,28.50
2018-09-12T15:02:53.228Z,27.61
2018-09-12T15:05:22.399Z,27.69
2018-09-12T15:07:51.411Z,28.56
2018-09-12T15:10:20.454Z,28.04
2018-09-12T15:12:49.451Z,28.26
2018-09-12T15:15:18.491Z,28.70
2018-09-12T15:17:47.631Z,28.07
2018-09-12T15:20:17.155Z,28.69
2018-09-12T15:22:46.206Z,28.33
2018-09-12T15:25:15.779Z,28.77
2018-09-12T15:27:44.823Z,28.20
2018-09-12T15:30:14.051Z,28.94
2018-09-12T15:32:43.094Z,28.45
2018-09-12T15:35:12.088Z,28.52
2018-09-12T15:37:41.115Z,28.58
2018-09-12T15:40:10.119Z,29.17
2018-09-12T15:42:39.150Z,28.73
2018-09-12T15:45:08.191Z,29.81
2018-09-12T15:47:37.235Z,29.89
2018-09-12T15:50:06.283Z,29.95
2018-09-12T15:52:35.307Z,29.42
2018-09-12T15:55:04.383Z,29.35
2018-09-12T15:57:33.435Z,30.26
2018-09-12T16:00:02.458Z,30.71
2018-09-12T16:02:31.487Z,30.08
2018-09-12T16:05:00.508Z,30.21
2018-09-12T16:07:29.547Z,31.06
2018-09-12T16:09:58.559Z,30.49
2018-09-12T16:12:27.596Z,30.51
2018-09-12T16:14:56.610Z,30.91
2018-09-12T16:17:25.615Z,31.68
2018-09-12T16:19:54.645Z,31.57
2018-09-12T16:22:23.655Z,31.53
2018-09-12T16:24:52.711Z,32.68
2018-09-12T16:27:22.114Z,32.17
2018-09-12T16:29:51.156Z,31.67
2018-09-12T16:32:20.195Z,32.33
2018-09-12T16:34:49.210Z,32.13
2018-09-12T16:37:18.249Z,32.44
2018-09-12T16:39:47.259Z,33.16
2018-09-12T16:42:16.724Z,33.31
2018-09-12T16:44:45.760Z,32.92
2018-09-12T16:47:14.816Z,33.63
2018-09-12T16:49:43.824Z,34.20
2018-09-12T16:52:12.836Z,35.51
2018-09-12T16:54:41.901Z,35.58
2018-09-12T16:57:10.926Z,36.46
2018-09-12T16:59:39.968Z,36.17
2018-09-12T17:02:08.982Z,36.44
2018-09-12T17:04:38.135Z,36.50
2018-09-12T17:07:07.176Z,36.11
2018-09-12T17:09:36.296Z,36.68
2018-09-12T17:12:05.323Z,37.88
2018-09-12T17:14:34.352Z,38.35
2018-09-12T17:17:03.368Z,38.13
2018-09-12T17:19:32.451Z,38.86
2018-09-12T17:22:01.537Z,39.34
2018-09-12T17:24:30.556Z,41.28
2018-09-12T17:26:59.607Z,42.54
2018-09-12T17:29:28.646Z,42.61
2018-09-12T17:31:57.696Z,44.44
2018-09-12T17:34:26.703Z,45.78
2018-09-12T17:36:55.720Z,46.84
2018-09-12T17:39:24.739Z,47.18
2018-09-12T17:41:53.761Z,48.82
2018-09-12T17:44:22.798Z,48.12
2018-09-12T17:46:51.907Z,50.25
2018-09-12T17:49:20.911Z,49.78
2018-09-12T17:51:49.920Z,49.24
2018-09-12T17:54:18.947Z,49.29
2018-09-12T17:56:47.967Z,50.04
2018-09-12T17:59:17.003Z,50.25
2018-09-12T18:01:46.023Z,50.24
2018-09-12T18:04:15.047Z,50.77
2018-09-12T18:06:44.056Z,51.52
2018-09-12T18:09:13.100Z,50.77
2018-09-12T18:11:42.138Z,51.55
2018-09-12T18:14:11.147Z,51.88
2018-09-12T18:16:41.122Z,53.00
2018-09-12T18:19:10.124Z,52.59
2018-09-12T18:21:39.563Z,51.85
2018-09-12T18:24:08.628Z,52.43
2018-09-12T18:26:37.575Z,52.91
2018-09-12T18:29:06.712Z,52.84
2018-09-12T18:31:35.763Z,53.10
2018-09-12T18:34:04.907Z,53.42
2018-09-12T18:36:37.609Z,53.35
2018-09-12T18:39:12.367Z,53.56
2018-09-12T18:41:41.607Z,53.42
2018-09-12T18:44:10.651Z,53.38
2018-09-12T18:46:39.666Z,53.71
2018-09-12T18:49:08.702Z,54.67
2018-09-12T18:51:37.720Z,54.90
2018-09-12T18:54:06.848Z,55.51
2018-09-12T18:56:35.852Z,54.95
2018-09-12T18:59:04.960Z,54.51
2018-09-12T19:01:33.987Z,55.01
2018-09-12T19:04:03.003Z,55.76
2018-09-12T19:06:32.064Z,56.25
2018-09-12T19:09:01.095Z,55.97
2018-09-12T19:11:30.119Z,56.60
2018-09-12T19:13:59.146Z,56.51
2018-09-12T19:16:28.154Z,56.72
2018-09-12T19:18:57.187Z,57.16
2018-09-12T19:21:26.272Z,57.07
2018-09-12T19:23:55.240Z,56.86
2018-09-12T19:26:24.290Z,56.97
2018-09-12T19:28:53.291Z,56.59
2018-09-12T19:31:22.436Z,56.75
2018-09-12T19:33:51.623Z,57.28
2018-09-12T19:36:20.587Z,56.81
2018-09-12T19:38:49.599Z,57.22
2018-09-12T19:41:18.739Z,57.13
2018-09-12T19:43:48.019Z,57.02
2018-09-12T19:46:17.076Z,57.81
2018-09-12T19:48:46.476Z,57.55
2018-09-12T19:51:16.406Z,57.22
2018-09-12T19:56:56.785Z,57.77
2018-09-12T19:59:25.910Z,58.06
2018-09-12T20:01:54.834Z,58.12
2018-09-12T20:04:23.795Z,57.99
2018-09-12T20:06:52.773Z,58.59
2018-09-12T20:09:21.706Z,58.45
2018-09-12T20:11:50.669Z,57.92
2018-09-12T20:14:19.815Z,57.33
2018-09-12T20:16:48.745Z,55.21
2018-09-12T20:19:17.840Z,55.93
2018-09-12T20:21:46.834Z,56.84
2018-09-12T20:24:15.764Z,56.91
2018-09-12T20:26:44.758Z,57.47
2018-09-12T20:29:13.917Z,57.08
2018-09-12T20:31:42.913Z,56.56
2018-09-12T20:34:11.907Z,56.61
2018-09-12T20:36:40.901Z,57.17
2018-09-12T20:39:10.873Z,57.11
2018-09-12T20:41:39.913Z,56.94
2018-09-12T20:44:08.907Z,57.30
2018-09-12T20:46:37.901Z,57.10
2018-09-12T20:49:06.895Z,58.12
2018-09-12T20:51:35.817Z,57.86
2018-09-12T20:54:04.868Z,57.15
2018-09-12T20:56:33.877Z,58.62
2018-09-12T20:59:02.874Z,58.31
2018-09-12T21:01:31.793Z,57.99
2018-09-12T21:04:00.756Z,57.41
2018-09-12T21:06:29.718Z,58.82
2018-09-12T21:08:58.711Z,58.82
2018-09-12T21:11:27.687Z,59.81
2018-09-12T21:13:56.652Z,60.25
2018-09-12T21:16:25.627Z,60.63
2018-09-12T21:18:54.577Z,60.78
2018-09-12T21:21:23.614Z,61.29
2018-09-12T21:23:52.629Z,61.66
2018-09-12T21:26:21.702Z,61.56
2018-09-12T21:28:50.659Z,61.94
2018-09-12T21:31:19.900Z,61.95
2018-09-12T21:33:48.994Z,62.91
2018-09-12T21:36:17.987Z,62.81
2018-09-12T21:38:46.981Z,63.10
2018-09-12T21:41:15.975Z,63.15
2018-09-12T21:43:44.969Z,63.92
2018-09-12T21:46:14.066Z,65.12
2018-09-12T21:48:43.060Z,64.60
2018-09-12T21:51:12.057Z,63.70
2018-09-12T21:53:41.049Z,63.45
2018-09-12T21:56:10.144Z,63.59
2018-09-12T21:58:39.298Z,63.51
2018-09-12T22:01:08.361Z,63.85
2018-09-12T22:03:37.327Z,64.22
2018-09-12T22:06:06.347Z,64.47
2018-09-12T22:08:35.526Z,65.14
2018-09-12T22:11:04.526Z,65.53
2018-09-12T22:13:33.513Z,65.40
2018-09-12T22:16:02.506Z,65.66
2018-09-12T22:18:31.502Z,65.85
2018-09-12T22:21:00.495Z,65.83
2018-09-12T22:23:29.490Z,66.89
2018-09-12T22:25:58.417Z,66.91
2018-09-12T22:28:27.377Z,66.79
2018-09-12T22:30:56.574Z,66.68
2018-09-12T22:33:25.576Z,66.74
2018-09-12T22:35:54.561Z,67.36
2018-09-12T22:38:23.499Z,67.68
2018-09-12T22:40:52.550Z,67.73
2018-09-12T22:43:21.545Z,67.68
2018-09-12T22:45:50.618Z,67.97
2018-09-12T22:48:19.634Z,67.83
2018-09-12T22:50:48.629Z,67.88
2018-09-12T22:53:17.553Z,67.53
2018-09-12T22:55:46.509Z,67.74
2018-09-12T22:58:15.526Z,67.85
2018-09-12T23:00:44.504Z,68.22
2018-09-12T23:03:13.666Z,67.98
2018-09-12T23:05:42.907Z,68.47
2018-09-12T23:08:11.894Z,68.18
2018-09-12T23:10:40.889Z,68.83
2018-09-12T23:13:09.985Z,68.75
2018-09-12T23:15:38.902Z,68.85
2018-09-12T23:18:07.878Z,69.32
2018-09-12T23:20:36.866Z,69.52
2018-09-12T23:23:05.985Z,70.08
2018-09-12T23:25:34.946Z,70.33
2018-09-12T23:28:04.052Z,70.78
2018-09-12T23:30:33.050Z,70.86
2018-09-12T23:33:02.042Z,71.00
2018-09-12T23:35:31.037Z,71.34
2018-09-12T23:38:00.030Z,71.39
2018-09-12T23:40:29.026Z,72.25
2018-09-12T23:42:58.020Z,72.40
2018-09-12T23:45:27.011Z,72.11
2018-09-12T23:47:56.005Z,72.43
2018-09-12T23:50:24.929Z,72.59
2018-09-12T23:52:53.993Z,72.55
2018-09-12T23:55:22.987Z,73.17
2018-09-12T23:57:51.898Z,73.49
